Time;durP1;ratioP1;P1;durP2;ratioP2;P2;SDS_P1;SDS_P2;PMS_P1;PMS_P2;Temp;Humidity;BMP_temperature;BMP_pressure;BME280_temperature;BME280_humidity;BME280_pressure;Samples;Min_cycle;Max_cycle;Signal;HPM_P1;HPM_P2
2023/07/08 00:00:55;;;;;;;5.40;3.90;;;;;;;;;;5027359;28;20036;-75
2023/07/08 00:03:21;;;;;;;6.05;3.38;;;;;;;;;;5028446;28;20499;-75
2023/07/08 00:05:48;;;;;;;6.80;3.65;;;;;;;;;;5028771;28;20502;-75
2023/07/08 00:08:15;;;;;;;6.72;3.38;;;;;;;;;;5028265;28;20028;-75
2023/07/08 00:10:41;;;;;;;7.13;3.67;;;;;;;;;;5025696;28;20125;-75
2023/07/08 00:13:09;;;;;;;7.57;2.95;;;;;;;;;;5029245;28;20547;-75
2023/07/08 00:15:36;;;;;;;6.18;3.90;;;;;;;;;;5022552;28;20040;-75
2023/07/08 00:18:04;;;;;;;4.47;3.05;;;;;;;;;;5026265;28;20538;-75
2023/07/08 00:20:37;;;;;;;6.78;3.28;;;;;;;;;;5026065;28;20048;-73
2023/07/08 00:23:03;;;;;;;5.40;3.25;;;;;;;;;;5025033;28;20035;-75
2023/07/08 00:25:29;;;;;;;6.43;3.38;;;;;;;;;;5024968;28;20033;-75
2023/07/08 00:27:56;;;;;;;4.38;3.15;;;;;;;;;;5042714;28;20018;-75
2023/07/08 00:30:24;;;;;;;5.72;3.53;;;;;;;;;;5022696;28;20021;-74
2023/07/08 00:32:56;;;;;;;5.82;3.75;;;;;;;;;;5025956;28;20117;-75
2023/07/08 00:35:36;;;;;;;7.43;3.60;;;;;;;;;;5031411;28;20029;-75
2023/07/08 00:38:12;;;;;;;4.30;3.30;;;;;;;;;;5024172;28;20053;-75
2023/07/08 00:40:38;;;;;;;7.28;3.60;;;;;;;;;;5026200;28;20132;-75
2023/07/08 00:43:06;;;;;;;4.25;3.60;;;;;;;;;;5041362;28;20116;-76
2023/07/08 00:45:35;;;;;;;7.13;3.92;;;;;;;;;;5023097;28;20026;-75
2023/07/08 00:48:22;;;;;;;5.10;4.55;;;;;;;;;;5025280;28;20029;-75
2023/07/08 00:50:48;;;;;;;6.22;3.92;;;;;;;;;;5027727;28;20041;-74
2023/07/08 00:53:22;;;;;;;7.53;4.07;;;;;;;;;;5019773;28;20021;-75
2023/07/08 00:55:49;;;;;;;4.93;3.72;;;;;;;;;;5024753;28;20364;-74
2023/07/08 00:58:17;;;;;;;5.75;4.13;;;;;;;;;;5026545;28;20033;-75
2023/07/08 01:00:43;;;;;;;8.05;4.28;;;;;;;;;;5022955;28;20018;-73
2023/07/08 01:03:09;;;;;;;4.95;3.83;;;;;;;;;;5019227;28;20479;-75
2023/07/08 01:05:38;;;;;;;7.43;4.95;;;;;;;;;;5024211;28;20068;-75
2023/07/08 01:08:06;;;;;;;7.13;3.95;;;;;;;;;;5024021;28;20028;-74
2023/07/08 01:10:48;;;;;;;8.20;4.25;;;;;;;;;;5022360;28;20144;-75
2023/07/08 01:13:15;;;;;;;5.95;3.95;;;;;;;;;;5025488;28;20025;-75
2023/07/08 01:15:43;;;;;;;9.02;4.25;;;;;;;;;;5024248;28;20500;-76
2023/07/08 01:18:10;;;;;;;6.65;4.05;;;;;;;;;;5027950;28;20040;-76
2023/07/08 01:20:37;;;;;;;7.63;4.28;;;;;;;;;;5029354;28;20029;-75
2023/07/08 01:23:04;;;;;;;6.18;4.13;;;;;;;;;;5025257;28;20033;-75
2023/07/08 01:25:31;;;;;;;9.35;4.43;;;;;;;;;;5016097;28;20048;-75
2023/07/08 01:27:57;;;;;;;8.05;4.78;;;;;;;;;;5022650;28;20522;-76
2023/07/08 01:30:23;;;;;;;6.82;4.45;;;;;;;;;;5027926;28;20029;-74
2023/07/08 01:32:52;;;;;;;6.50;4.28;;;;;;;;;;5023619;28;20025;-75
2023/07/08 01:35:18;;;;;;;6.05;4.20;;;;;;;;;;5032333;28;20504;-74
2023/07/08 01:37:55;;;;;;;8.25;4.15;;;;;;;;;;5032251;28;20022;-75
2023/07/08 01:40:24;;;;;;;8.68;4.43;;;;;;;;;;5025490;28;20033;-75
2023/07/08 01:42:50;;;;;;;6.97;4.47;;;;;;;;;;5023870;28;20407;-75
2023/07/08 01:45:18;;;;;;;7.00;3.65;;;;;;;;;;5028533;28;20053;-75
2023/07/08 01:47:47;;;;;;;5.93;4.22;;;;;;;;;;5018374;28;20053;-75
2023/07/08 01:50:13;;;;;;;7.45;4.57;;;;;;;;;;5027715;28;20068;-75
2023/07/08 01:52:40;;;;;;;6.10;3.70;;;;;;;;;;5030939;28;20018;-75
2023/07/08 01:55:06;;;;;;;8.25;4.47;;;;;;;;;;5031422;28;20036;-74
2023/07/08 01:57:32;;;;;;;10.75;4.70;;;;;;;;;;5049021;28;20033;-75
2023/07/08 01:59:58;;;;;;;9.43;4.47;;;;;;;;;;5042852;28;20061;-74
2023/07/08 02:02:25;;;;;;;7.70;4.93;;;;;;;;;;5029450;28;20034;-74
2023/07/08 02:04:51;;;;;;;6.40;3.88;;;;;;;;;;5031563;28;20486;-74
2023/07/08 02:07:17;;;;;;;6.63;4.88;;;;;;;;;;5022463;28;20029;-74
2023/07/08 02:09:44;;;;;;;7.75;4.68;;;;;;;;;;5024051;28;20092;-73
2023/07/08 02:12:10;;;;;;;7.50;4.45;;;;;;;;;;5035710;28;20082;-74
2023/07/08 02:14:36;;;;;;;7.55;4.13;;;;;;;;;;5042098;28;20456;-73
2023/07/08 02:17:05;;;;;;;15.05;5.90;;;;;;;;;;5038029;28;20037;-74
2023/07/08 02:19:31;;;;;;;5.95;4.30;;;;;;;;;;5030509;28;20750;-73
2023/07/08 02:21:58;;;;;;;10.48;5.05;;;;;;;;;;5033759;28;20028;-74
2023/07/08 02:24:24;;;;;;;7.78;4.78;;;;;;;;;;5037668;28;20392;-74
2023/07/08 02:26:50;;;;;;;7.57;4.95;;;;;;;;;;5032755;28;20052;-73
2023/07/08 02:29:16;;;;;;;8.98;4.68;;;;;;;;;;5031942;28;20053;-74
2023/07/08 02:31:42;;;;;;;8.25;4.60;;;;;;;;;;5033977;28;20471;-74
2023/07/08 02:34:08;;;;;;;9.00;4.35;;;;;;;;;;5022602;28;20033;-75
2023/07/08 02:36:34;;;;;;;10.27;5.10;;;;;;;;;;5036086;28;20021;-74
2023/07/08 02:39:00;;;;;;;7.50;5.03;;;;;;;;;;5027470;28;20044;-75
2023/07/08 02:41:27;;;;;;;8.52;5.25;;;;;;;;;;5031072;28;20075;-75
2023/07/08 02:43:53;;;;;;;5.57;4.60;;;;;;;;;;5028643;28;20388;-75
2023/07/08 02:46:19;;;;;;;8.30;4.57;;;;;;;;;;5025682;28;20036;-74
2023/07/08 02:48:45;;;;;;;7.97;5.43;;;;;;;;;;5027126;28;20030;-74
2023/07/08 02:51:11;;;;;;;10.43;4.97;;;;;;;;;;5023693;28;20034;-74
2023/07/08 02:53:37;;;;;;;7.28;4.30;;;;;;;;;;5022292;28;20159;-75
2023/07/08 02:56:03;;;;;;;8.48;4.65;;;;;;;;;;5026156;28;20037;-75
2023/07/08 02:58:30;;;;;;;8.68;4.93;;;;;;;;;;5027065;28;20026;-74
2023/07/08 03:01:00;;;;;;;6.53;4.13;;;;;;;;;;5025769;28;20025;-75
2023/07/08 03:03:29;;;;;;;7.82;4.35;;;;;;;;;;5020872;28;20040;-74
2023/07/08 03:05:56;;;;;;;7.35;4.75;;;;;;;;;;5027479;28;20372;-74
2023/07/08 03:08:22;;;;;;;8.55;4.40;;;;;;;;;;5029529;28;20028;-74
2023/07/08 03:10:49;;;;;;;8.85;4.72;;;;;;;;;;5025740;28;20148;-75
2023/07/08 03:13:15;;;;;;;5.95;4.55;;;;;;;;;;5030917;28;20029;-74
2023/07/08 03:15:45;;;;;;;8.60;4.60;;;;;;;;;;5028680;28;20537;-75
2023/07/08 03:18:11;;;;;;;7.90;4.95;;;;;;;;;;5029037;28;20103;-75
2023/07/08 03:20:39;;;;;;;10.90;4.88;;;;;;;;;;5024176;28;20022;-75
2023/07/08 03:23:06;;;;;;;7.35;5.22;;;;;;;;;;5020016;28;20030;-75
2023/07/08 03:25:32;;;;;;;5.45;3.97;;;;;;;;;;5026674;28;20036;-75
2023/07/08 03:27:59;;;;;;;11.18;5.45;;;;;;;;;;5025671;28;20026;-75
2023/07/08 03:30:26;;;;;;;8.15;4.40;;;;;;;;;;5026008;28;20017;-75
2023/07/08 03:32:54;;;;;;;7.32;4.07;;;;;;;;;;5022927;28;20113;-75
2023/07/08 03:35:22;;;;;;;9.25;4.55;;;;;;;;;;5027024;28;20551;-76
2023/07/08 03:37:48;;;;;;;5.63;4.05;;;;;;;;;;5027789;28;20052;-75
2023/07/08 03:40:14;;;;;;;7.80;4.78;;;;;;;;;;5019505;28;20032;-74
2023/07/08 03:42:40;;;;;;;7.47;4.70;;;;;;;;;;5025102;28;20091;-74
2023/07/08 03:45:07;;;;;;;6.93;4.45;;;;;;;;;;5028623;28;20087;-74
2023/07/08 03:47:33;;;;;;;10.25;4.85;;;;;;;;;;5026495;28;20041;-75
2023/07/08 03:49:59;;;;;;;8.32;4.78;;;;;;;;;;5023353;28;20476;-75
2023/07/08 03:52:25;;;;;;;8.43;5.40;;;;;;;;;;5026061;28;20549;-75
2023/07/08 03:54:51;;;;;;;8.88;4.45;;;;;;;;;;5028239;28;20029;-75
2023/07/08 03:57:17;;;;;;;7.13;4.38;;;;;;;;;;5027144;28;20112;-75
2023/07/08 03:59:43;;;;;;;6.60;4.75;;;;;;;;;;5022341;28;20096;-75
2023/07/08 04:02:11;;;;;;;7.13;4.53;;;;;;;;;;5020679;28;20956;-75
2023/07/08 04:04:37;;;;;;;9.40;4.57;;;;;;;;;;5028304;28;20045;-75
2023/07/08 04:07:06;;;;;;;7.05;4.70;;;;;;;;;;5025946;28;20109;-74
2023/07/08 04:09:32;;;;;;;11.48;4.97;;;;;;;;;;5028252;28;20030;-75
2023/07/08 04:11:59;;;;;;;9.73;5.00;;;;;;;;;;5021659;28;20021;-74
2023/07/08 04:14:25;;;;;;;9.18;4.30;;;;;;;;;;5027375;28;20028;-75
2023/07/08 04:17:00;;;;;;;17.77;6.07;;;;;;;;;;5019549;28;20116;-75
2023/07/08 04:19:27;;;;;;;9.95;4.97;;;;;;;;;;5024576;28;20026;-76
2023/07/08 04:21:53;;;;;;;9.75;4.20;;;;;;;;;;5028395;28;20267;-75
2023/07/08 04:24:19;;;;;;;7.53;4.70;;;;;;;;;;5027902;28;20105;-75
2023/07/08 04:26:46;;;;;;;8.80;4.30;;;;;;;;;;5025995;28;20052;-76
2023/07/08 04:29:14;;;;;;;12.70;4.85;;;;;;;;;;5016929;28;20097;-74
2023/07/08 04:31:41;;;;;;;6.72;4.55;;;;;;;;;;5040716;28;20587;-75
2023/07/08 04:34:07;;;;;;;7.85;5.47;;;;;;;;;;5029833;28;20029;-75
2023/07/08 04:36:34;;;;;;;6.28;3.95;;;;;;;;;;5025277;28;20449;-75
2023/07/08 04:39:00;;;;;;;6.85;4.32;;;;;;;;;;5022130;28;20108;-75
2023/07/08 04:41:26;;;;;;;7.57;3.95;;;;;;;;;;5028057;28;20538;-75
2023/07/08 04:43:53;;;;;;;8.65;4.50;;;;;;;;;;5033556;28;20086;-74
2023/07/08 04:46:38;;;;;;;7.53;5.00;;;;;;;;;;5030515;28;20025;-75
2023/07/08 04:49:11;;;;;;;7.95;4.50;;;;;;;;;;5022167;28;20026;-75
2023/07/08 04:51:38;;;;;;;6.28;4.00;;;;;;;;;;5026195;28;20032;-75
2023/07/08 04:54:04;;;;;;;8.93;4.07;;;;;;;;;;5029252;28;20033;-76
2023/07/08 04:56:38;;;;;;;7.40;4.05;;;;;;;;;;5033935;28;20061;-74
2023/07/08 04:59:05;;;;;;;7.25;4.70;;;;;;;;;;5029311;28;20022;-76
2023/07/08 05:01:31;;;;;;;7.63;4.57;;;;;;;;;;5037082;28;20106;-74
2023/07/08 05:03:58;;;;;;;11.40;5.35;;;;;;;;;;5036119;28;20045;-74
2023/07/08 05:06:24;;;;;;;7.13;4.65;;;;;;;;;;5037672;28;20077;-74
2023/07/08 05:08:50;;;;;;;12.27;5.00;;;;;;;;;;5038640;28;20025;-74
2023/07/08 05:11:16;;;;;;;7.65;4.68;;;;;;;;;;5049853;28;20024;-75
2023/07/08 05:13:42;;;;;;;9.43;4.95;;;;;;;;;;5047311;28;20022;-76
2023/07/08 05:16:09;;;;;;;5.88;3.90;;;;;;;;;;5033676;28;20060;-75
2023/07/08 05:18:35;;;;;;;10.90;4.65;;;;;;;;;;5029832;28;20516;-75
2023/07/08 05:21:03;;;;;;;13.48;5.32;;;;;;;;;;5050405;28;20032;-74
2023/07/08 05:23:29;;;;;;;9.68;4.57;;;;;;;;;;5032427;28;20022;-76
2023/07/08 05:25:55;;;;;;;8.63;4.45;;;;;;;;;;5029989;28;20021;-75
2023/07/08 05:28:23;;;;;;;10.60;4.88;;;;;;;;;;5028151;28;20041;-75
2023/07/08 05:30:53;;;;;;;9.65;5.13;;;;;;;;;;5022674;28;20018;-75
2023/07/08 05:33:19;;;;;;;13.48;5.00;;;;;;;;;;5035973;28;20426;-74
2023/07/08 05:35:46;;;;;;;12.20;5.47;;;;;;;;;;5027876;28;20083;-75
2023/07/08 05:38:12;;;;;;;7.13;4.90;;;;;;;;;;5029110;28;20104;-75
2023/07/08 05:40:38;;;;;;;10.60;5.07;;;;;;;;;;5022376;28;20262;-76
2023/07/08 05:43:04;;;;;;;11.77;5.03;;;;;;;;;;5024535;28;20033;-75
2023/07/08 05:45:30;;;;;;;9.85;5.13;;;;;;;;;;5024771;28;20079;-75
2023/07/08 05:47:56;;;;;;;14.07;4.32;;;;;;;;;;5031578;28;20037;-75
2023/07/08 05:50:22;;;;;;;6.55;4.55;;;;;;;;;;5031978;28;20283;-74
2023/07/08 05:52:48;;;;;;;11.30;4.78;;;;;;;;;;5041175;28;20387;-74
2023/07/08 05:55:15;;;;;;;11.05;4.40;;;;;;;;;;5032765;28;20021;-74
2023/07/08 05:57:41;;;;;;;13.05;4.20;;;;;;;;;;5034948;28;20037;-75
2023/07/08 06:00:07;;;;;;;9.55;4.72;;;;;;;;;;5031501;28;20036;-76
2023/07/08 06:02:34;;;;;;;11.20;4.75;;;;;;;;;;5032192;28;20033;-75
2023/07/08 06:05:00;;;;;;;9.80;5.03;;;;;;;;;;5027825;28;20073;-75
2023/07/08 06:07:26;;;;;;;10.77;4.47;;;;;;;;;;5025840;28;20125;-75
2023/07/08 06:09:52;;;;;;;10.15;4.45;;;;;;;;;;5030996;28;20022;-76
2023/07/08 06:12:18;;;;;;;4.43;2.75;;;;;;;;;;5028590;28;20029;-75
2023/07/08 06:14:44;;;;;;;5.70;2.90;;;;;;;;;;5027614;28;20641;-75
2023/07/08 06:17:10;;;;;;;3.47;2.40;;;;;;;;;;5024813;28;20047;-75
2023/07/08 06:19:37;;;;;;;5.15;2.40;;;;;;;;;;5030524;28;20025;-73
2023/07/08 06:22:03;;;;;;;5.75;2.50;;;;;;;;;;5026728;28;20543;-75
2023/07/08 06:24:29;;;;;;;5.60;2.53;;;;;;;;;;5034421;28;20038;-75
2023/07/08 06:26:55;;;;;;;4.38;2.05;;;;;;;;;;5024936;28;20487;-75
2023/07/08 06:29:21;;;;;;;11.93;3.65;;;;;;;;;;5026984;28;20092;-76
2023/07/08 06:31:47;;;;;;;10.32;3.40;;;;;;;;;;5023800;28;20025;-75
2023/07/08 06:34:13;;;;;;;11.90;3.55;;;;;;;;;;5023729;28;20045;-75
2023/07/08 06:36:39;;;;;;;10.60;3.53;;;;;;;;;;5025775;28;20423;-74
2023/07/08 06:39:08;;;;;;;9.25;2.78;;;;;;;;;;5031349;28;20033;-75
2023/07/08 06:41:34;;;;;;;13.60;4.30;;;;;;;;;;5035454;28;20060;-74
2023/07/08 06:44:01;;;;;;;7.22;2.70;;;;;;;;;;5032538;28;20029;-75
2023/07/08 06:46:27;;;;;;;8.02;3.38;;;;;;;;;;5022733;28;20029;-75
2023/07/08 06:48:53;;;;;;;10.63;4.00;;;;;;;;;;5029129;28;20419;-75
2023/07/08 06:51:19;;;;;;;9.00;3.53;;;;;;;;;;5029719;28;20514;-75
2023/07/08 06:53:45;;;;;;;6.93;2.83;;;;;;;;;;5024155;28;20096;-75
2023/07/08 06:56:11;;;;;;;13.90;2.88;;;;;;;;;;5029197;28;20025;-76
2023/07/08 06:58:38;;;;;;;12.60;3.13;;;;;;;;;;5026956;28;20033;-75
2023/07/08 07:01:04;;;;;;;11.45;3.33;;;;;;;;;;5028323;28;20369;-76
2023/07/08 07:03:30;;;;;;;10.40;3.13;;;;;;;;;;5032983;28;20108;-75
2023/07/08 07:05:56;;;;;;;9.80;4.10;;;;;;;;;;5028662;28;20479;-76
2023/07/08 07:08:22;;;;;;;10.02;3.15;;;;;;;;;;5027136;28;20033;-74
2023/07/08 07:10:48;;;;;;;13.75;3.17;;;;;;;;;;5024134;28;20067;-75
2023/07/08 07:13:14;;;;;;;6.78;2.55;;;;;;;;;;5031703;28;20480;-75
2023/07/08 07:15:40;;;;;;;9.98;3.03;;;;;;;;;;5026944;28;20742;-76
2023/07/08 07:18:06;;;;;;;9.68;3.15;;;;;;;;;;5027910;28;20060;-75
2023/07/08 07:20:33;;;;;;;11.63;4.30;;;;;;;;;;5024638;28;20041;-75
2023/07/08 07:23:00;;;;;;;13.25;4.18;;;;;;;;;;5025717;28;20422;-75
2023/07/08 07:25:26;;;;;;;8.35;2.83;;;;;;;;;;5027850;28;20571;-75
2023/07/08 07:27:52;;;;;;;8.40;2.55;;;;;;;;;;5032793;28;20034;-75
2023/07/08 07:30:19;;;;;;;8.32;2.90;;;;;;;;;;5034957;28;20092;-74
2023/07/08 07:32:45;;;;;;;12.65;3.03;;;;;;;;;;5033080;28;20603;-74
2023/07/08 07:35:15;;;;;;;6.78;2.78;;;;;;;;;;5030235;28;20092;-75
2023/07/08 07:37:41;;;;;;;8.55;3.47;;;;;;;;;;5026439;28;20990;-75
2023/07/08 07:40:13;;;;;;;9.27;2.80;;;;;;;;;;5026388;28;20079;-75
2023/07/08 07:42:40;;;;;;;9.63;2.70;;;;;;;;;;5028366;28;20027;-76
2023/07/08 07:45:06;;;;;;;8.85;3.40;;;;;;;;;;5027755;28;20032;-75
2023/07/08 07:47:33;;;;;;;9.82;2.70;;;;;;;;;;5026585;28;20033;-73
2023/07/08 07:49:59;;;;;;;9.80;2.95;;;;;;;;;;5026940;28;20636;-75
2023/07/08 07:52:25;;;;;;;7.75;2.40;;;;;;;;;;5022318;28;20030;-76
2023/07/08 07:54:57;;;;;;;8.05;2.97;;;;;;;;;;5026531;28;20119;-76
2023/07/08 07:57:24;;;;;;;11.57;3.85;;;;;;;;;;5021646;28;20571;-75
2023/07/08 07:59:50;;;;;;;7.07;2.33;;;;;;;;;;5029604;28;20103;-76
2023/07/08 08:02:16;;;;;;;9.23;2.58;;;;;;;;;;5030641;28;20479;-74
2023/07/08 08:04:42;;;;;;;3.65;2.30;;;;;;;;;;5030487;28;20619;-75
2023/07/08 08:07:09;;;;;;;8.32;3.30;;;;;;;;;;5033196;28;20041;-75
2023/07/08 08:09:36;;;;;;;10.48;2.67;;;;;;;;;;5049569;28;20026;-75
2023/07/08 08:12:03;;;;;;;4.65;2.33;;;;;;;;;;5026658;28;20034;-75
2023/07/08 08:14:29;;;;;;;6.05;2.75;;;;;;;;;;5026458;28;20029;-76
2023/07/08 08:16:55;;;;;;;9.57;2.33;;;;;;;;;;5036810;28;20653;-76
2023/07/08 08:19:22;;;;;;;9.77;2.38;;;;;;;;;;5029834;28;20049;-75
2023/07/08 08:21:48;;;;;;;6.47;2.60;;;;;;;;;;5025261;28;20481;-75
2023/07/08 08:24:14;;;;;;;8.70;3.55;;;;;;;;;;5026258;28;20358;-75
2023/07/08 08:26:41;;;;;;;3.60;2.10;;;;;;;;;;5017962;28;20029;-76
2023/07/08 08:29:07;;;;;;;5.30;2.10;;;;;;;;;;5029966;28;20022;-75
2023/07/08 08:31:33;;;;;;;5.80;2.40;;;;;;;;;;5049856;28;20029;-75
2023/07/08 08:33:59;;;;;;;3.17;2.45;;;;;;;;;;5038684;28;20165;-75
2023/07/08 08:36:25;;;;;;;6.38;3.47;;;;;;;;;;5041150;28;20025;-75
2023/07/08 08:38:51;;;;;;;4.80;2.58;;;;;;;;;;5041749;28;20040;-74
2023/07/08 08:41:19;;;;;;;4.55;2.20;;;;;;;;;;5040048;28;20029;-75
2023/07/08 08:43:47;;;;;;;6.43;2.42;;;;;;;;;;5038219;28;20514;-75
2023/07/08 08:46:26;;;;;;;5.05;2.60;;;;;;;;;;5033144;28;20084;-75
2023/07/08 08:48:56;;;;;;;8.88;2.97;;;;;;;;;;5029454;28;20044;-75
2023/07/08 08:51:24;;;;;;;4.80;2.30;;;;;;;;;;5031903;28;20029;-75
2023/07/08 08:53:53;;;;;;;6.47;2.25;;;;;;;;;;5024659;28;20030;-74
2023/07/08 08:56:21;;;;;;;5.88;2.53;;;;;;;;;;5022053;28;20400;-74
2023/07/08 08:58:59;;;;;;;6.50;2.25;;;;;;;;;;5027173;28;20040;-74
2023/07/08 09:01:25;;;;;;;7.28;2.78;;;;;;;;;;5028639;28;20032;-74
2023/07/08 09:03:52;;;;;;;6.43;2.33;;;;;;;;;;5025231;28;20125;-75
2023/07/08 09:06:18;;;;;;;6.53;2.10;;;;;;;;;;5048417;28;20160;-75
2023/07/08 09:08:44;;;;;;;3.83;2.08;;;;;;;;;;5024554;28;20033;-75
2023/07/08 09:11:15;;;;;;;8.73;2.47;;;;;;;;;;5026197;28;20025;-75
2023/07/08 09:13:41;;;;;;;5.05;2.17;;;;;;;;;;5024039;28;20034;-75
2023/07/08 09:16:14;;;;;;;5.00;1.95;;;;;;;;;;5023335;28;20030;-75
2023/07/08 09:18:52;;;;;;;5.85;2.47;;;;;;;;;;5035277;28;20037;-75
2023/07/08 09:21:26;;;;;;;7.78;2.50;;;;;;;;;;5028680;28;20025;-75
2023/07/08 09:23:54;;;;;;;4.70;2.38;;;;;;;;;;5035944;28;20033;-75
2023/07/08 09:26:24;;;;;;;6.78;2.47;;;;;;;;;;5026972;28;20049;-75
2023/07/08 09:28:51;;;;;;;6.47;2.20;;;;;;;;;;5026377;28;20103;-75
2023/07/08 09:31:23;;;;;;;6.20;1.83;;;;;;;;;;5024977;28;20030;-75
2023/07/08 09:33:51;;;;;;;6.22;2.22;;;;;;;;;;5030132;28;20026;-75
2023/07/08 09:36:19;;;;;;;4.15;1.70;;;;;;;;;;5029724;28;20518;-75
2023/07/08 09:38:48;;;;;;;9.23;3.25;;;;;;;;;;5031937;28;20500;-76
2023/07/08 09:41:14;;;;;;;5.63;2.30;;;;;;;;;;5037441;28;20092;-75
2023/07/08 09:43:40;;;;;;;6.00;2.33;;;;;;;;;;5031766;28;20053;-75
2023/07/08 09:46:11;;;;;;;5.35;1.92;;;;;;;;;;5025505;28;20041;-75
2023/07/08 09:48:37;;;;;;;7.30;2.65;;;;;;;;;;5027130;28;20028;-75
2023/07/08 09:51:04;;;;;;;5.05;2.45;;;;;;;;;;5026582;28;20029;-75
2023/07/08 09:53:30;;;;;;;5.38;2.20;;;;;;;;;;5029574;28;20045;-75
2023/07/08 09:55:57;;;;;;;6.85;1.92;;;;;;;;;;5044065;28;20085;-76
2023/07/08 09:58:37;;;;;;;4.05;2.00;;;;;;;;;;5031973;28;20458;-76
2023/07/08 10:01:09;;;;;;;2.45;1.80;;;;;;;;;;5027773;28;20575;-76
2023/07/08 10:03:36;;;;;;;3.97;2.00;;;;;;;;;;5023933;28;20037;-77
2023/07/08 10:06:20;;;;;;;4.40;1.95;;;;;;;;;;5028291;28;20057;-76
2023/07/08 10:08:47;;;;;;;3.67;1.87;;;;;;;;;;5036127;28;20105;-77
2023/07/08 10:11:31;;;;;;;6.25;2.00;;;;;;;;;;5028228;28;20032;-77
2023/07/08 10:14:00;;;;;;;5.88;2.03;;;;;;;;;;5026821;28;20475;-77
2023/07/08 10:16:31;;;;;;;6.80;2.70;;;;;;;;;;5028687;28;20175;-77
2023/07/08 10:18:58;;;;;;;6.32;2.63;;;;;;;;;;5029099;28;20025;-76
2023/07/08 10:21:42;;;;;;;7.55;2.38;;;;;;;;;;5030983;28;20096;-76
2023/07/08 10:24:26;;;;;;;6.97;2.83;;;;;;;;;;5028910;28;20131;-76
2023/07/08 10:27:05;;;;;;;11.93;2.55;;;;;;;;;;5026718;28;20044;-76
2023/07/08 10:29:54;;;;;;;7.22;2.78;;;;;;;;;;5028090;28;20309;-77
2023/07/08 10:32:24;;;;;;;7.43;2.58;;;;;;;;;;5027947;28;20466;-76
2023/07/08 10:35:10;;;;;;;12.23;3.60;;;;;;;;;;5030303;28;20075;-76
2023/07/08 10:37:39;;;;;;;6.82;2.78;;;;;;;;;;5021286;28;20052;-76
2023/07/08 10:40:24;;;;;;;6.70;2.28;;;;;;;;;;5030441;28;20035;-77
2023/07/08 10:43:02;;;;;;;6.65;2.25;;;;;;;;;;5029459;28;20045;-76
2023/07/08 10:45:52;;;;;;;6.18;2.20;;;;;;;;;;5025400;28;20026;-77
2023/07/08 10:48:30;;;;;;;7.57;2.35;;;;;;;;;;5032748;28;20372;-76
2023/07/08 10:51:08;;;;;;;7.47;2.50;;;;;;;;;;5026727;28;20427;-77
2023/07/08 10:53:44;;;;;;;7.88;2.55;;;;;;;;;;5026752;28;20415;-77
2023/07/08 10:56:19;;;;;;;6.93;2.80;;;;;;;;;;5030681;28;20033;-77
2023/07/08 10:58:53;;;;;;;6.00;2.42;;;;;;;;;;5022364;28;20034;-76
2023/07/08 11:01:30;;;;;;;5.93;2.85;;;;;;;;;;5024550;28;20026;-76
2023/07/08 11:04:14;;;;;;;6.90;2.47;;;;;;;;;;5026047;28;20073;-77
2023/07/08 11:06:40;;;;;;;10.73;2.70;;;;;;;;;;5026354;28;20021;-76
2023/07/08 11:09:08;;;;;;;7.25;2.95;;;;;;;;;;5019521;28;20041;-76
2023/07/08 11:11:34;;;;;;;7.75;2.70;;;;;;;;;;5021603;28;20029;-77
2023/07/08 11:14:04;;;;;;;5.07;2.55;;;;;;;;;;5021182;28;20503;-76
2023/07/08 11:16:37;;;;;;;7.63;2.30;;;;;;;;;;5023652;28;20029;-76
2023/07/08 11:19:25;;;;;;;10.45;2.55;;;;;;;;;;5029379;28;21273;-77
2023/07/08 11:21:53;;;;;;;9.73;2.40;;;;;;;;;;5025609;28;20041;-77
2023/07/08 11:24:23;;;;;;;7.30;3.17;;;;;;;;;;5047752;28;20036;-77
2023/07/08 11:27:01;;;;;;;7.28;2.60;;;;;;;;;;5031082;28;20419;-77
2023/07/08 11:30:02;;;;;;;5.30;2.40;;;;;;;;;;5028505;28;20060;-77
2023/07/08 11:32:30;;;;;;;7.55;2.65;;;;;;;;;;4972172;28;20612;-77
2023/07/08 11:34:56;;;;;;;9.93;2.38;;;;;;;;;;5017127;28;20088;-77
2023/07/08 11:37:23;;;;;;;5.40;2.17;;;;;;;;;;5035794;28;20461;-77
2023/07/08 11:39:58;;;;;;;8.52;2.85;;;;;;;;;;5035437;28;20021;-77
2023/07/08 11:42:45;;;;;;;5.63;2.08;;;;;;;;;;5033916;28;20025;-78
2023/07/08 11:45:30;;;;;;;5.78;2.88;;;;;;;;;;5034695;28;20030;-78
2023/07/08 11:48:04;;;;;;;4.32;2.33;;;;;;;;;;5035594;28;20059;-81
2023/07/08 11:50:33;;;;;;;4.88;2.00;;;;;;;;;;5044589;28;20029;-81
2023/07/08 11:53:01;;;;;;;6.22;2.30;;;;;;;;;;5045120;28;20037;-77
2023/07/08 11:55:35;;;;;;;4.25;1.95;;;;;;;;;;5036978;28;20707;-77
2023/07/08 11:58:01;;;;;;;5.22;2.40;;;;;;;;;;5038099;28;20144;-78
2023/07/08 12:00:32;;;;;;;5.80;2.58;;;;;;;;;;5028622;28;20032;-78
2023/07/08 12:02:59;;;;;;;7.80;3.28;;;;;;;;;;5032623;28;20025;-78
2023/07/08 12:05:35;;;;;;;4.88;2.17;;;;;;;;;;5028348;28;20048;-78
2023/07/08 12:08:03;;;;;;;3.35;2.10;;;;;;;;;;5024651;28;20034;-78
2023/07/08 12:10:29;;;;;;;7.43;2.88;;;;;;;;;;5031705;28;20075;-77
2023/07/08 12:12:55;;;;;;;5.45;2.80;;;;;;;;;;5037361;28;20166;-78
2023/07/08 12:15:21;;;;;;;8.20;2.45;;;;;;;;;;5037568;28;20171;-78
2023/07/08 12:17:48;;;;;;;6.03;2.00;;;;;;;;;;5032598;28;20025;-77
2023/07/08 12:20:20;;;;;;;5.40;2.25;;;;;;;;;;5028736;28;20430;-78
2023/07/08 12:22:47;;;;;;;4.47;1.95;;;;;;;;;;5028697;28;20451;-80
2023/07/08 12:25:17;;;;;;;5.18;2.95;;;;;;;;;;5033839;28;20025;-77
2023/07/08 12:27:47;;;;;;;4.72;2.17;;;;;;;;;;5028660;28;20114;-77
2023/07/08 12:30:13;;;;;;;4.60;2.05;;;;;;;;;;5029169;28;20101;-77
2023/07/08 12:32:41;;;;;;;5.25;2.00;;;;;;;;;;5038390;28;20376;-77
2023/07/08 12:35:14;;;;;;;6.32;2.20;;;;;;;;;;5041293;28;20044;-77
2023/07/08 12:37:41;;;;;;;4.47;2.10;;;;;;;;;;5037083;28;20032;-77
2023/07/08 12:40:10;;;;;;;5.85;2.35;;;;;;;;;;5031571;28;20053;-77
2023/07/08 12:42:36;;;;;;;5.38;2.15;;;;;;;;;;5035513;28;20041;-77
2023/07/08 12:45:02;;;;;;;4.63;1.98;;;;;;;;;;5029858;28;20037;-77
2023/07/08 12:47:28;;;;;;;5.97;2.50;;;;;;;;;;5035048;28;20071;-77
2023/07/08 12:49:54;;;;;;;6.15;2.00;;;;;;;;;;5032292;28;20033;-77
2023/07/08 12:52:24;;;;;;;5.00;2.20;;;;;;;;;;5021990;28;20458;-77
2023/07/08 12:54:50;;;;;;;2.97;2.00;;;;;;;;;;5020600;28;20056;-77
2023/07/08 12:57:17;;;;;;;6.32;3.05;;;;;;;;;;5020771;28;20029;-77
2023/07/08 12:59:43;;;;;;;7.53;2.55;;;;;;;;;;5023268;28;20411;-78
2023/07/08 13:02:20;;;;;;;3.40;2.50;;;;;;;;;;5023387;28;20021;-76
2023/07/08 13:04:57;;;;;;;4.32;2.40;;;;;;;;;;5021347;28;20572;-77
2023/07/08 13:07:34;;;;;;;6.13;2.13;;;;;;;;;;5022243;28;20033;-76
2023/07/08 13:10:01;;;;;;;4.55;2.33;;;;;;;;;;5030233;28;20079;-78
2023/07/08 13:12:27;;;;;;;5.45;2.42;;;;;;;;;;5026349;28;20030;-77
2023/07/08 13:14:54;;;;;;;3.97;2.25;;;;;;;;;;5031398;28;20040;-77
2023/07/08 13:17:21;;;;;;;5.07;2.20;;;;;;;;;;5028243;28;20038;-77
2023/07/08 13:19:47;;;;;;;7.13;2.40;;;;;;;;;;5028696;28;20036;-77
2023/07/08 13:22:15;;;;;;;4.22;2.30;;;;;;;;;;5027547;28;20096;-77
2023/07/08 13:24:42;;;;;;;5.03;2.42;;;;;;;;;;5034596;28;20037;-77
2023/07/08 13:27:23;;;;;;;4.25;2.20;;;;;;;;;;5026716;28;20029;-78
2023/07/08 13:29:53;;;;;;;5.10;2.35;;;;;;;;;;5021824;28;20040;-78
2023/07/08 13:32:19;;;;;;;5.50;2.20;;;;;;;;;;5024761;28;20026;-77
2023/07/08 13:34:48;;;;;;;3.30;2.03;;;;;;;;;;5029473;28;20030;-78
2023/07/08 13:37:15;;;;;;;6.20;2.17;;;;;;;;;;5021433;28;20041;-78
2023/07/08 13:39:44;;;;;;;5.43;2.45;;;;;;;;;;5020321;28;20080;-77
2023/07/08 13:42:10;;;;;;;3.75;2.10;;;;;;;;;;5018395;28;20041;-78
2023/07/08 13:44:44;;;;;;;3.17;2.00;;;;;;;;;;5026896;28;20025;-77
2023/07/08 13:47:30;;;;;;;8.30;2.42;;;;;;;;;;5032696;28;20029;-77
2023/07/08 13:50:05;;;;;;;6.97;2.58;;;;;;;;;;5026212;28;20394;-77
2023/07/08 13:52:31;;;;;;;4.72;2.58;;;;;;;;;;5016497;28;20037;-82
2023/07/08 13:55:02;;;;;;;3.88;2.20;;;;;;;;;;5019156;28;20052;-76
2023/07/08 13:57:37;;;;;;;6.85;2.40;;;;;;;;;;5020957;28;20053;-76
2023/07/08 14:00:04;;;;;;;4.80;2.17;;;;;;;;;;5024799;28;20428;-77
2023/07/08 14:02:32;;;;;;;6.25;2.53;;;;;;;;;;5018353;28;20026;-77
2023/07/08 14:04:58;;;;;;;5.78;2.22;;;;;;;;;;5020458;28;20095;-77
2023/07/08 14:07:26;;;;;;;6.00;2.20;;;;;;;;;;5021515;28;20029;-76
2023/07/08 14:09:54;;;;;;;4.68;2.08;;;;;;;;;;5033884;28;20721;-77
2023/07/08 14:12:20;;;;;;;5.47;2.20;;;;;;;;;;5018152;28;20503;-77
2023/07/08 14:14:46;;;;;;;5.72;2.00;;;;;;;;;;5025351;28;20480;-77
2023/07/08 14:17:13;;;;;;;3.67;2.00;;;;;;;;;;5021984;28;20068;-77
2023/07/08 14:19:40;;;;;;;3.90;2.00;;;;;;;;;;5028353;28;20382;-77
2023/07/08 14:22:15;;;;;;;8.73;2.50;;;;;;;;;;5025659;28;20653;-77
2023/07/08 14:24:42;;;;;;;4.47;2.45;;;;;;;;;;5031553;28;20116;-77
2023/07/08 14:27:13;;;;;;;4.70;2.45;;;;;;;;;;5042447;28;20096;-76
2023/07/08 14:29:40;;;;;;;5.22;2.55;;;;;;;;;;5026161;28;20048;-77
2023/07/08 14:32:12;;;;;;;3.85;2.00;;;;;;;;;;5043232;28;20103;-77
2023/07/08 14:34:38;;;;;;;6.78;2.30;;;;;;;;;;5045936;28;20034;-79
2023/07/08 14:37:09;;;;;;;6.43;2.10;;;;;;;;;;5027485;28;20036;-77
2023/07/08 14:39:35;;;;;;;4.45;2.67;;;;;;;;;;5027606;28;20088;-76
2023/07/08 14:42:01;;;;;;;3.83;1.98;;;;;;;;;;5030497;28;20044;-78
2023/07/08 14:44:32;;;;;;;4.57;2.03;;;;;;;;;;5030738;28;20033;-77
2023/07/08 14:46:58;;;;;;;4.13;2.33;;;;;;;;;;5039435;28;20116;-77
2023/07/08 14:49:25;;;;;;;3.05;1.75;;;;;;;;;;5037889;28;20094;-78